createdAt,value
2024-03-05T00:00:54.433Z,97804.94
2024-03-05T00:01:57.171Z,97801.00
2024-03-05T00:02:58.680Z,97805.94
2024-03-05T00:04:01.050Z,97793.22
2024-03-05T00:05:04.946Z,97796.19
2024-03-05T00:06:07.515Z,97801.34
2024-03-05T00:07:09.373Z,97802.47
2024-03-05T00:08:11.057Z,97804.66
2024-03-05T00:09:12.566Z,97803.06
2024-03-05T00:10:14.677Z,97794.59
2024-03-05T00:11:16.555Z,97800.03
2024-03-05T00:12:18.778Z,97801.41
2024-03-05T00:13:20.549Z,97802.22
2024-03-05T00:14:22.457Z,97799.19
2024-03-05T00:15:23.958Z,97802.50
2024-03-05T00:16:25.496Z,97802.00
2024-03-05T00:17:27.807Z,97791.91
2024-03-05T00:18:30.519Z,97800.59
2024-03-05T00:19:32.343Z,97803.22
2024-03-05T00:20:34.008Z,97803.22
2024-03-05T00:21:35.782Z,97803.72
2024-03-05T00:22:38.074Z,97799.97
2024-03-05T00:23:40.235Z,97809.72
2024-03-05T00:24:41.711Z,97800.28
2024-03-05T00:25:43.426Z,97801.66
2024-03-05T00:26:45.083Z,97811.41
2024-03-05T00:27:47.079Z,97806.00
2024-03-05T00:28:48.686Z,97802.41
2024-03-05T00:29:50.196Z,97796.44
2024-03-05T00:30:52.040Z,97804.94
2024-03-05T00:31:53.583Z,97799.19
2024-03-05T00:32:56.067Z,97814.13
2024-03-05T00:33:57.539Z,97805.19
2024-03-05T00:34:59.053Z,97806.44
2024-03-05T00:36:00.547Z,97807.50
2024-03-05T00:37:02.016Z,97808.03
2024-03-05T00:38:09.225Z,97809.16
2024-03-05T00:39:13.997Z,97808.97
2024-03-05T00:40:15.725Z,97815.19
2024-03-05T00:41:19.307Z,97803.06
2024-03-05T00:42:20.846Z,97812.25
2024-03-05T00:43:22.962Z,97810.34
2024-03-05T00:44:24.520Z,97804.13
2024-03-05T00:45:26.928Z,97802.09
2024-03-05T00:46:28.448Z,97807.50
2024-03-05T00:47:31.519Z,97803.97
2024-03-05T00:48:33.190Z,97800.50
2024-03-05T00:49:34.787Z,97808.34
2024-03-05T00:50:36.329Z,97802.63
2024-03-05T00:51:37.898Z,97808.34
2024-03-05T00:52:40.143Z,97807.25
2024-03-05T00:53:41.643Z,97797.25
2024-03-05T00:54:43.107Z,97808.97
2024-03-05T00:55:45.412Z,97804.88
2024-03-05T00:56:47.054Z,97809.47
2024-03-05T00:57:48.882Z,97812.50
2024-03-05T00:58:51.603Z,97807.06
2024-03-05T00:59:56.629Z,97802.72
2024-03-05T01:00:58.126Z,97805.69
2024-03-05T01:02:00.472Z,97817.28
2024-03-05T01:03:02.770Z,97815.91
2024-03-05T01:04:06.089Z,97816.72
2024-03-05T01:05:10.964Z,97821.63
2024-03-05T01:06:12.566Z,97813.50
2024-03-05T01:07:14.159Z,97814.06
2024-03-05T01:08:16.317Z,97806.44
2024-03-05T01:09:19.860Z,97811.59
2024-03-05T01:10:21.666Z,97803.94
2024-03-05T01:11:23.208Z,97807.59
2024-03-05T01:12:25.500Z,97817.28
2024-03-05T01:13:28.240Z,97814.56
2024-03-05T01:14:29.761Z,97818.41
2024-03-05T01:15:31.681Z,97811.94
2024-03-05T01:16:33.434Z,97813.25
2024-03-05T01:17:38.080Z,97808.09
2024-03-05T01:18:39.873Z,97814.03
2024-03-05T01:19:41.456Z,97801.50
2024-03-05T01:20:43.341Z,97808.91
2024-03-05T01:21:45.160Z,97812.69
2024-03-05T01:22:48.250Z,97819.16
2024-03-05T01:23:49.968Z,97812.56
2024-03-05T01:24:52.100Z,97815.03
2024-03-05T01:25:53.912Z,97811.19
2024-03-05T01:26:55.433Z,97812.81
2024-03-05T01:27:59.441Z,97812.25
2024-03-05T01:29:01.016Z,97814.97
2024-03-05T01:30:02.575Z,97819.31
2024-03-05T01:31:04.300Z,97810.06
2024-03-05T01:32:06.187Z,97802.91
2024-03-05T01:33:10.966Z,97818.19
2024-03-05T01:34:12.636Z,97813.38
2024-03-05T01:35:14.354Z,97809.03
2024-03-05T01:36:17.048Z,97813.88
2024-03-05T01:37:18.565Z,97810.09
2024-03-05T01:38:22.023Z,97819.06
2024-03-05T01:39:30.105Z,97812.53
2024-03-05T01:40:31.803Z,97807.41
2024-03-05T01:41:33.289Z,97812.63
2024-03-05T01:42:34.834Z,97811.81
2024-03-05T01:43:37.192Z,97820.38
2024-03-05T01:44:38.705Z,97819.31
2024-03-05T01:45:40.232Z,97819.88
2024-03-05T01:46:41.836Z,97816.59
2024-03-05T01:47:45.424Z,97803.31
2024-03-05T01:48:47.027Z,97812.22
2024-03-05T01:49:48.784Z,97806.72
2024-03-05T01:50:50.410Z,97815.66
2024-03-05T01:51:54.779Z,97825.31
2024-03-05T01:52:56.947Z,97819.69
2024-03-05T01:54:00.295Z,97815.97
2024-03-05T01:55:07.391Z,97819.25
2024-03-05T01:56:09.415Z,97819.38
2024-03-05T01:57:10.984Z,97818.22
2024-03-05T01:58:16.118Z,97816.47
2024-03-05T01:59:18.686Z,97826.25
2024-03-05T02:00:21.901Z,97809.06
2024-03-05T02:01:24.176Z,97822.59
2024-03-05T02:02:25.884Z,97762.34
2024-03-05T02:03:27.462Z,97816.38
2024-03-05T02:04:29.732Z,97818.00
2024-03-05T02:05:31.365Z,97814.22
2024-03-05T02:06:33.821Z,97822.91
2024-03-05T02:07:38.490Z,97817.50
2024-03-05T02:08:40.240Z,97816.84
2024-03-05T02:09:42.430Z,97810.34
2024-03-05T02:10:44.063Z,97820.47
2024-03-05T02:11:55.779Z,97827.81
2024-03-05T02:13:01.027Z,97813.78
2024-03-05T02:14:02.917Z,97819.25
2024-03-05T02:15:07.687Z,97826.25
2024-03-05T02:16:09.899Z,97825.50
2024-03-05T02:17:13.323Z,97818.69
2024-03-05T02:18:14.860Z,97825.16
2024-03-05T02:19:17.972Z,97811.56
2024-03-05T02:20:21.648Z,97818.63
2024-03-05T02:21:23.275Z,97819.56
2024-03-05T02:22:24.826Z,97823.97
2024-03-05T02:23:26.339Z,97819.97
2024-03-05T02:24:28.226Z,97801.19
2024-03-05T02:25:32.575Z,97826.88
2024-03-05T02:26:34.597Z,97829.06
2024-03-05T02:27:37.803Z,97828.38
2024-03-05T02:28:39.762Z,97826.84
2024-03-05T02:29:43.008Z,97822.63
2024-03-05T02:30:44.939Z,97826.13
2024-03-05T02:31:46.533Z,97823.28
2024-03-05T02:32:48.142Z,97830.16
2024-03-05T02:33:49.722Z,97824.06
2024-03-05T02:34:54.605Z,97827.06
2024-03-05T02:35:59.546Z,97819.72
2024-03-05T02:37:01.358Z,97827.63
2024-03-05T02:38:06.739Z,97808.84
2024-03-05T02:39:08.473Z,97826.38
2024-03-05T02:40:11.585Z,97827.63
2024-03-05T02:41:13.164Z,97831.09
2024-03-05T02:42:14.688Z,97818.75
2024-03-05T02:43:16.764Z,97816.94
2024-03-05T02:44:18.701Z,97826.94
2024-03-05T02:45:20.201Z,97831.34
2024-03-05T02:46:21.773Z,97799.72
2024-03-05T02:47:23.376Z,97835.44
2024-03-05T02:48:25.180Z,97831.97
2024-03-05T02:49:26.723Z,97829.56
2024-03-05T02:50:28.226Z,97833.09
2024-03-05T02:51:30.114Z,97835.34
2024-03-05T02:52:32.393Z,97828.31
2024-03-05T02:53:36.177Z,97824.81
2024-03-05T02:54:38.414Z,97830.53
2024-03-05T02:55:40.238Z,97830.72
2024-03-05T02:56:41.794Z,97841.09
2024-03-05T02:57:43.617Z,97830.84
2024-03-05T02:58:45.239Z,97829.28
2024-03-05T02:59:47.144Z,97836.84
2024-03-05T03:00:48.791Z,97837.22
2024-03-05T03:01:51.519Z,97837.31
2024-03-05T03:02:53.094Z,97823.72
2024-03-05T03:03:55.078Z,97833.88
2024-03-05T03:04:56.630Z,97831.69
2024-03-05T03:05:58.148Z,97834.16
2024-03-05T03:07:00.089Z,97834.25
2024-03-05T03:08:01.637Z,97839.16
2024-03-05T03:09:04.543Z,97831.66
2024-03-05T03:10:09.699Z,97844.16
2024-03-05T03:11:20.601Z,97845.56
2024-03-05T03:12:22.265Z,97835.88
2024-03-05T03:13:24.640Z,97848.84
2024-03-05T03:14:26.772Z,97838.84
2024-03-05T03:15:30.382Z,97843.44
2024-03-05T03:16:31.904Z,97833.06
2024-03-05T03:17:36.447Z,97836.00
2024-03-05T03:18:37.942Z,97842.16
2024-03-05T03:19:39.819Z,97860.03
2024-03-05T03:20:41.347Z,97854.13
2024-03-05T03:21:43.419Z,97852.00
2024-03-05T03:22:46.854Z,97841.16
2024-03-05T03:23:48.412Z,97849.09
2024-03-05T03:24:49.908Z,97836.56
2024-03-05T03:25:51.548Z,97836.81
2024-03-05T03:26:53.563Z,97842.28
2024-03-05T03:27:55.126Z,97847.16
2024-03-05T03:28:57.134Z,97847.25
2024-03-05T03:29:59.250Z,97845.75
2024-03-05T03:31:01.605Z,97843.34
2024-03-05T03:32:05.417Z,97847.66
2024-03-05T03:33:07.007Z,97846.50
2024-03-05T03:34:08.912Z,97848.69
2024-03-05T03:35:11.148Z,97842.16
2024-03-05T03:36:22.432Z,97848.03
2024-03-05T03:37:23.988Z,97840.19
2024-03-05T03:38:25.470Z,97851.63
2024-03-05T03:39:27.078Z,97844.03
2024-03-05T03:40:34.466Z,97841.63
2024-03-05T03:41:36.144Z,97849.88
2024-03-05T03:42:37.629Z,97846.13
2024-03-05T03:43:39.178Z,97838.16
2024-03-05T03:44:41.187Z,97854.19
2024-03-05T03:45:42.915Z,97851.22
2024-03-05T03:46:44.879Z,97840.28
2024-03-05T03:47:47.416Z,97855.66
2024-03-05T03:48:49.977Z,97856.50
2024-03-05T03:49:52.597Z,97849.69
2024-03-05T03:50:54.257Z,97862.19
2024-03-05T03:51:55.832Z,97854.94
2024-03-05T03:52:57.383Z,97866.84
2024-03-05T03:53:59.115Z,97865.50
2024-03-05T03:55:01.071Z,97847.81
2024-03-05T03:56:02.627Z,97862.69
2024-03-05T03:57:04.284Z,97855.63
2024-03-05T03:58:05.814Z,97859.59
2024-03-05T03:59:08.854Z,97861.47
2024-03-05T04:00:11.036Z,97852.88
2024-03-05T04:01:12.864Z,97864.31
2024-03-05T04:02:14.397Z,97861.72
2024-03-05T04:03:16.436Z,97862.28
2024-03-05T04:04:18.546Z,97854.09
2024-03-05T04:05:20.053Z,97857.19
2024-03-05T04:06:21.576Z,97868.50
2024-03-05T04:07:25.051Z,97869.72
2024-03-05T04:08:26.640Z,97869.47
2024-03-05T04:09:29.109Z,97868.25
2024-03-05T04:10:30.656Z,97866.78
2024-03-05T04:11:32.886Z,97851.47
2024-03-05T04:12:40.114Z,97869.47
2024-03-05T04:13:41.624Z,97869.41
2024-03-05T04:14:43.555Z,97873.75
2024-03-05T04:15:45.065Z,97875.13
2024-03-05T04:16:46.647Z,97871.66
2024-03-05T04:17:48.348Z,97873.50
2024-03-05T04:18:49.843Z,97868.97
2024-03-05T04:19:52.868Z,97878.56
2024-03-05T04:20:54.738Z,97872.47
2024-03-05T04:21:56.233Z,97869.22
2024-03-05T04:22:58.123Z,97871.41
2024-03-05T04:23:59.660Z,97886.59
2024-03-05T04:25:01.587Z,97881.66
2024-03-05T04:26:09.537Z,97871.28
2024-03-05T04:27:12.885Z,97876.75
2024-03-05T04:28:14.685Z,97879.69
2024-03-05T04:29:20.880Z,97863.06
2024-03-05T04:30:24.848Z,97875.13
2024-03-05T04:31:35.225Z,97872.41
2024-03-05T04:32:56.248Z,97875.69
2024-03-05T04:34:04.036Z,97877.03
2024-03-05T04:35:07.891Z,97882.47
2024-03-05T04:36:10.454Z,97877.84
2024-03-05T04:37:12.120Z,97888.41
2024-03-05T04:38:13.739Z,97888.31
2024-03-05T04:39:17.148Z,97878.91
2024-03-05T04:40:20.028Z,97879.38
2024-03-05T04:41:21.557Z,97879.56
2024-03-05T04:42:26.105Z,97874.75
2024-03-05T04:43:27.629Z,97881.13
2024-03-05T04:44:30.389Z,97881.28
2024-03-05T04:45:34.359Z,97889.88
2024-03-05T04:46:35.896Z,97876.28
2024-03-05T04:47:38.224Z,97887.75
2024-03-05T04:48:39.801Z,97881.59
2024-03-05T04:49:41.326Z,97885.28
2024-03-05T04:50:43.619Z,97887.13
2024-03-05T04:51:45.209Z,97890.88
2024-03-05T04:52:46.825Z,97897.59
2024-03-05T04:53:48.365Z,97890.63
2024-03-05T04:54:49.892Z,97893.34
2024-03-05T04:55:51.909Z,97885.72
2024-03-05T04:56:53.558Z,97884.75
2024-03-05T04:57:55.179Z,97891.78
2024-03-05T04:58:56.809Z,97891.78
2024-03-05T04:59:59.232Z,97893.34
2024-03-05T05:01:00.787Z,97885.97
2024-03-05T05:02:02.912Z,97890.31
2024-03-05T05:03:05.238Z,97897.13
2024-03-05T05:04:07.191Z,97883.59
2024-03-05T05:05:09.140Z,97882.69
2024-03-05T05:06:11.787Z,97875.56
2024-03-05T05:07:13.272Z,97883.59
2024-03-05T05:08:16.844Z,97878.19
2024-03-05T05:09:21.721Z,97891.84
2024-03-05T05:10:23.596Z,97891.03
2024-03-05T05:11:25.275Z,97878.28
2024-03-05T05:12:26.826Z,97885.03
2024-03-05T05:13:28.484Z,97881.72
2024-03-05T05:14:30.668Z,97884.97
2024-03-05T05:15:32.557Z,97855.09
2024-03-05T05:16:34.103Z,97888.41
2024-03-05T05:17:35.802Z,97886.78
2024-03-05T05:18:38.793Z,97865.47
2024-03-05T05:20:44.656Z,97858.78
2024-03-05T05:21:46.735Z,97866.97
2024-03-05T05:22:48.725Z,97883.69
2024-03-05T05:23:50.346Z,97889.88
2024-03-05T05:24:51.868Z,97883.34
2024-03-05T05:25:54.310Z,97877.94
2024-03-05T05:26:55.821Z,97887.69
2024-03-05T05:27:57.324Z,97889.88
2024-03-05T05:28:58.849Z,97878.91
2024-03-05T05:30:08.463Z,97888.50
2024-03-05T05:31:28.040Z,97876.78
2024-03-05T05:32:29.710Z,97882.34
2024-03-05T05:33:31.264Z,97883.41
2024-03-05T05:34:32.795Z,97880.97
2024-03-05T05:35:38.884Z,97881.72
2024-03-05T05:36:40.434Z,97888.25
2024-03-05T05:37:42.028Z,97881.72
2024-03-05T05:38:44.700Z,97875.38
2024-03-05T05:39:46.223Z,97879.34
2024-03-05T05:40:47.753Z,97889.72
2024-03-05T05:41:49.252Z,97865.34
2024-03-05T05:42:51.028Z,97886.94
2024-03-05T05:43:52.584Z,97882.75
2024-03-05T05:44:54.144Z,97892.84
2024-03-05T05:45:55.664Z,97893.69
2024-03-05T05:46:57.920Z,97886.53
2024-03-05T05:47:59.676Z,97894.88
2024-03-05T05:49:06.540Z,97899.25
2024-03-05T05:50:18.613Z,97893.69
2024-03-05T05:51:20.283Z,97899.16
2024-03-05T05:52:23.189Z,97905.13
2024-03-05T05:53:24.781Z,97895.94
2024-03-05T05:54:26.414Z,97906.44
2024-03-05T05:55:28.542Z,97903.97
2024-03-05T05:56:30.996Z,97903.16
2024-03-05T05:57:32.591Z,97905.13
2024-03-05T05:58:34.631Z,97910.28
2024-03-05T05:59:36.275Z,97899.09
2024-03-05T06:00:38.246Z,97914.22
2024-03-05T06:01:40.205Z,97913.16
2024-03-05T06:02:41.791Z,97913.16
2024-03-05T06:03:46.012Z,97913.16
2024-03-05T06:04:47.774Z,97915.94
2024-03-05T06:05:49.639Z,97907.59
2024-03-05T06:06:52.482Z,97907.19
2024-03-05T06:07:55.042Z,97915.03
2024-03-05T06:08:56.763Z,97919.91
2024-03-05T06:09:58.262Z,97915.31
2024-03-05T06:10:59.937Z,97921.53
2024-03-05T06:12:02.841Z,97922.31
2024-03-05T06:13:04.440Z,97925.03
2024-03-05T06:14:08.313Z,97896.78
2024-03-05T06:15:10.967Z,97920.19
2024-03-05T06:16:12.820Z,97911.44
2024-03-05T06:17:14.499Z,97915.94
2024-03-05T06:18:17.124Z,97919.81
2024-03-05T06:19:18.686Z,97922.50
2024-03-05T06:20:20.248Z,97910.78
2024-03-05T06:21:22.077Z,97922.44
2024-03-05T06:22:30.005Z,97921.38
2024-03-05T06:23:36.201Z,97916.34
2024-03-05T06:24:37.708Z,97921.28
2024-03-05T06:25:40.815Z,97930.72
2024-03-05T06:26:42.710Z,97933.81
2024-03-05T06:27:44.848Z,97926.03
2024-03-05T06:28:46.370Z,97899.00
2024-03-05T06:29:47.868Z,97932.50
2024-03-05T06:30:50.598Z,97920.69
2024-03-05T06:31:52.289Z,97929.16
2024-03-05T06:32:54.000Z,97933.31
2024-03-05T06:33:55.730Z,97911.75
2024-03-05T06:34:57.332Z,97905.06
2024-03-05T06:35:59.384Z,97935.63
2024-03-05T06:37:02.577Z,97924.81
2024-03-05T06:38:07.703Z,97910.13
2024-03-05T06:39:19.350Z,97932.50
2024-03-05T06:40:21.573Z,97933.31
2024-03-05T06:41:26.322Z,97923.91
2024-03-05T06:42:31.883Z,97941.03
2024-03-05T06:43:42.938Z,97931.94
2024-03-05T06:44:48.743Z,97938.56
2024-03-05T06:45:50.428Z,97944.47
2024-03-05T06:46:55.283Z,97941.69
2024-03-05T06:49:09.464Z,97948.53
2024-03-05T06:50:20.519Z,97947.16
2024-03-05T06:51:29.975Z,97946.13
2024-03-05T06:52:50.108Z,97935.38
2024-03-05T06:54:10.357Z,97943.19
2024-03-05T06:55:30.537Z,97938.09
2024-03-05T06:56:41.124Z,97937.63
2024-03-05T06:57:43.309Z,97945.41
2024-03-05T06:58:47.170Z,97939.81
2024-03-05T06:59:50.850Z,97942.00
2024-03-05T07:00:52.429Z,97947.63
2024-03-05T07:01:56.037Z,97948.16
2024-03-05T07:02:58.584Z,97947.03
2024-03-05T07:04:00.088Z,97947.53
2024-03-05T07:05:02.432Z,97939.66
2024-03-05T07:06:14.463Z,97942.66
2024-03-05T07:07:16.431Z,97946.09
2024-03-05T07:08:18.487Z,97944.16
2024-03-05T07:09:20.812Z,97943.47
2024-03-05T07:10:22.627Z,97936.28
2024-03-05T07:11:26.938Z,97935.31
2024-03-05T07:12:31.376Z,97958.56
2024-03-05T07:13:35.044Z,97947.47
2024-03-05T07:14:38.393Z,97948.16
2024-03-05T07:15:39.881Z,97943.47
2024-03-05T07:16:41.486Z,97945.13
2024-03-05T07:17:45.976Z,97948.16
2024-03-05T07:18:49.169Z,97945.16
2024-03-05T07:19:50.772Z,97944.00
2024-03-05T07:20:52.269Z,97951.09
2024-03-05T07:21:53.757Z,97938.63
2024-03-05T07:22:55.750Z,97946.06
2024-03-05T07:23:59.212Z,97948.00
2024-03-05T07:25:00.729Z,97951.00
2024-03-05T07:26:06.030Z,97953.53
2024-03-05T07:27:09.475Z,97945.47
2024-03-05T07:28:14.037Z,97950.66
2024-03-05T07:29:15.565Z,97945.22
2024-03-05T07:30:18.315Z,97949.25
2024-03-05T07:31:20.406Z,97940.31
2024-03-05T07:32:22.179Z,97944.50
2024-03-05T07:33:24.010Z,97950.72
2024-03-05T07:34:25.587Z,97947.50
2024-03-05T07:35:27.091Z,97947.25
2024-03-05T07:36:28.704Z,97949.94
2024-03-05T07:37:30.803Z,97929.75
2024-03-05T07:38:32.700Z,97944.81
2024-03-05T07:39:34.206Z,97954.25
2024-03-05T07:40:35.750Z,97949.06
2024-03-05T07:41:37.372Z,97953.03
2024-03-05T07:42:44.494Z,97960.31
2024-03-05T07:43:46.091Z,97958.72
2024-03-05T07:44:47.572Z,97935.53
2024-03-05T07:45:50.816Z,97951.72
2024-03-05T07:46:52.719Z,97944.59
2024-03-05T07:47:54.315Z,97953.59
2024-03-05T07:48:56.526Z,97936.72
2024-03-05T07:49:58.061Z,97960.72
2024-03-05T07:50:59.591Z,97945.56
2024-03-05T07:52:01.074Z,97949.47
2024-03-05T07:53:03.623Z,97953.81
2024-03-05T07:54:05.205Z,97957.13
2024-03-05T07:55:12.161Z,97942.41
2024-03-05T07:56:13.923Z,97953.75
2024-03-05T07:57:15.545Z,97956.47
2024-03-05T07:58:17.406Z,97961.59
2024-03-05T07:59:18.947Z,97963.53
2024-03-05T08:00:24.408Z,97956.47
2024-03-05T08:01:26.012Z,97953.56
2024-03-05T08:02:27.590Z,97957.09
2024-03-05T08:03:29.527Z,97969.06
2024-03-05T08:04:31.068Z,97950.34
2024-03-05T08:05:32.668Z,97953.63
2024-03-05T08:06:34.212Z,97954.50
2024-03-05T08:07:36.800Z,97962.38
2024-03-05T08:08:38.734Z,97967.63
2024-03-05T08:09:40.239Z,97965.66
2024-03-05T08:10:41.814Z,97969.69
2024-03-05T08:11:43.370Z,97958.84
2024-03-05T08:12:46.732Z,97972.75
2024-03-05T08:13:48.594Z,97967.47
2024-03-05T08:14:50.100Z,97959.38
2024-03-05T08:15:51.590Z,97953.47
2024-03-05T08:16:53.118Z,97951.56
2024-03-05T08:17:57.379Z,97966.28
2024-03-05T08:18:59.351Z,97958.28
2024-03-05T08:20:01.925Z,97967.00
2024-03-05T08:21:03.679Z,97961.41
2024-03-05T08:22:06.339Z,97969.63
2024-03-05T08:23:08.916Z,97963.13
2024-03-05T08:24:10.705Z,97964.28
2024-03-05T08:25:14.480Z,97950.78
2024-03-05T08:26:16.009Z,97957.38
2024-03-05T08:27:17.732Z,97955.53
2024-03-05T08:28:19.301Z,97964.56
2024-03-05T08:29:21.426Z,97955.72
2024-03-05T08:30:24.697Z,97950.09
2024-03-05T08:31:27.021Z,97956.69
2024-03-05T08:32:28.661Z,97954.63
2024-03-05T08:33:30.208Z,97958.75
2024-03-05T08:34:32.136Z,97959.63
2024-03-05T08:35:33.647Z,97964.06
2024-03-05T08:36:38.032Z,97957.66
2024-03-05T08:37:41.932Z,97962.06
2024-03-05T08:38:46.064Z,97957.97
2024-03-05T08:39:48.018Z,97965.88
2024-03-05T08:40:50.344Z,97956.06
2024-03-05T08:41:52.050Z,97957.66
2024-03-05T08:42:57.874Z,97963.38
2024-03-05T08:43:59.511Z,97958.50
2024-03-05T08:45:01.649Z,97956.88
2024-03-05T08:46:05.513Z,97938.88
2024-03-05T08:47:07.722Z,97957.69
2024-03-05T08:48:09.353Z,97955.25
2024-03-05T08:49:10.891Z,97955.47
2024-03-05T08:50:12.875Z,97955.19
2024-03-05T08:51:14.758Z,97966.41
2024-03-05T08:52:17.169Z,97958.22
2024-03-05T08:53:18.717Z,97960.34
2024-03-05T08:54:20.333Z,97974.97
2024-03-05T08:55:22.066Z,97969.25
2024-03-05T08:56:24.938Z,97956.47
2024-03-05T08:57:27.340Z,97960.84
2024-03-05T08:58:29.696Z,97973.13
2024-03-05T08:59:32.896Z,97980.19
2024-03-05T09:00:42.114Z,97970.97
2024-03-05T09:01:45.289Z,97981.59
2024-03-05T09:02:46.897Z,97977.84
2024-03-05T09:03:48.578Z,97984.63
2024-03-05T09:04:52.403Z,97966.09
2024-03-05T09:05:54.403Z,97973.97
2024-03-05T09:06:56.064Z,97975.06
2024-03-05T09:07:57.666Z,97972.91
2024-03-05T09:08:59.397Z,97973.94
2024-03-05T09:10:01.515Z,97969.13
2024-03-05T09:11:06.766Z,97973.81
2024-03-05T09:12:08.557Z,97959.06
2024-03-05T09:13:10.161Z,97971.22
2024-03-05T09:14:12.211Z,97969.06
2024-03-05T09:15:17.721Z,97957.94
2024-03-05T09:16:19.276Z,97973.38
2024-03-05T09:17:22.444Z,97970.66
2024-03-05T09:18:23.902Z,97968.84
2024-03-05T09:19:25.525Z,97973.34
2024-03-05T09:20:27.424Z,97986.31
2024-03-05T09:21:29.681Z,97982.44
2024-03-05T09:22:31.226Z,97963.13
2024-03-05T09:23:32.809Z,97986.03
2024-03-05T09:24:34.453Z,97989.59
2024-03-05T09:25:37.670Z,97990.88
2024-03-05T09:26:39.251Z,97992.72
2024-03-05T09:27:46.534Z,97984.94
2024-03-05T09:28:48.407Z,97988.56
2024-03-05T09:29:49.933Z,97982.25
2024-03-05T09:30:51.730Z,97984.06
2024-03-05T09:31:53.275Z,97985.13
2024-03-05T09:32:54.954Z,97991.00
2024-03-05T09:33:56.806Z,97991.16
2024-03-05T09:34:58.750Z,97969.84
2024-03-05T09:36:00.787Z,97985.44
2024-03-05T09:37:02.326Z,97977.44
2024-03-05T09:38:04.472Z,97989.19
2024-03-05T09:39:10.590Z,97993.44
2024-03-05T09:40:19.542Z,97999.47
2024-03-05T09:41:22.400Z,97994.22
2024-03-05T09:42:24.685Z,97992.88
2024-03-05T09:43:26.713Z,97992.78
2024-03-05T09:44:29.306Z,97992.88
2024-03-05T09:45:32.181Z,97999.63
2024-03-05T09:46:33.721Z,97992.22
2024-03-05T09:47:38.473Z,97979.59
2024-03-05T09:48:40.082Z,97996.34
2024-03-05T09:49:43.508Z,97970.13
2024-03-05T09:50:47.757Z,97999.03
2024-03-05T09:51:49.388Z,98000.75
2024-03-05T09:52:50.942Z,97994.97
2024-03-05T09:53:54.104Z,97990.53
2024-03-05T09:54:55.662Z,97999.69
2024-03-05T09:55:57.651Z,98007.47
2024-03-05T09:56:59.919Z,97997.06
2024-03-05T09:58:04.966Z,97997.75
2024-03-05T09:59:06.679Z,98000.91
2024-03-05T10:00:11.297Z,97999.38
2024-03-05T10:01:13.030Z,97992.81
2024-03-05T10:02:17.326Z,98003.22
2024-03-05T10:03:19.378Z,98005.38
2024-03-05T10:04:23.214Z,97999.19
2024-03-05T10:05:26.260Z,98002.19
2024-03-05T10:06:28.229Z,97992.88
2024-03-05T10:07:29.762Z,98000.13
2024-03-05T10:08:31.525Z,97999.56
2024-03-05T10:09:33.062Z,97995.28
2024-03-05T10:10:35.150Z,98003.78
2024-03-05T10:11:37.458Z,97996.25
2024-03-05T10:12:40.647Z,98002.66
2024-03-05T10:13:42.434Z,98002.28
2024-03-05T10:14:43.961Z,97998.56
2024-03-05T10:15:45.850Z,98003.00
2024-03-05T10:16:47.481Z,98000.63
2024-03-05T10:17:50.883Z,98001.16
2024-03-05T10:18:52.582Z,97998.50
2024-03-05T10:19:54.171Z,97995.72
2024-03-05T10:20:55.761Z,97999.06
2024-03-05T10:22:11.877Z,98001.69
2024-03-05T10:23:16.557Z,97979.44
2024-03-05T10:24:28.458Z,97989.63
2024-03-05T10:25:30.507Z,97996.31
2024-03-05T10:26:33.590Z,97990.97
2024-03-05T10:27:35.113Z,97995.41
2024-03-05T10:28:36.678Z,97981.84
2024-03-05T10:29:38.979Z,97992.28
2024-03-05T10:30:44.478Z,97978.38
2024-03-05T10:31:48.224Z,97982.00
2024-03-05T10:32:54.619Z,97992.66
2024-03-05T10:33:59.790Z,97990.25
2024-03-05T10:35:02.185Z,97987.81
2024-03-05T10:36:04.372Z,97998.13
2024-03-05T10:37:06.285Z,97955.38
2024-03-05T10:38:11.014Z,97987.78
2024-03-05T10:39:14.170Z,97984.28
2024-03-05T10:40:16.372Z,97986.75
2024-03-05T10:41:47.032Z,97969.88
2024-03-05T10:42:53.893Z,97978.84
2024-03-05T10:43:57.372Z,97988.41
2024-03-05T10:44:59.888Z,97984.03
2024-03-05T10:46:02.947Z,97989.75
2024-03-05T10:47:05.607Z,97986.19
2024-03-05T10:48:12.008Z,97989.72
2024-03-05T10:49:15.626Z,97995.94
2024-03-05T10:50:18.772Z,97995.69
2024-03-05T10:51:22.970Z,97958.59
2024-03-05T10:52:27.155Z,97991.25
2024-03-05T10:53:28.938Z,97994.28
2024-03-05T10:54:31.482Z,97973.25
2024-03-05T10:55:35.802Z,97990.16
2024-03-05T10:56:44.243Z,97994.53
2024-03-05T10:58:22.248Z,97999.41
2024-03-05T10:59:41.285Z,97992.94
2024-03-05T11:00:45.339Z,97992.66
2024-03-05T11:01:47.210Z,97995.34
2024-03-05T11:02:48.882Z,97995.66
2024-03-05T11:03:53.096Z,97979.84
2024-03-05T11:04:55.762Z,97982.25
2024-03-05T11:05:59.142Z,97986.34
2024-03-05T11:07:03.253Z,97996.41
2024-03-05T11:08:05.673Z,97997.78
2024-03-05T11:09:10.387Z,97980.09
2024-03-05T11:10:13.388Z,97995.63
2024-03-05T11:11:20.698Z,97992.88
2024-03-05T11:12:22.684Z,97990.47
2024-03-05T11:13:25.627Z,97994.00
2024-03-05T11:14:27.338Z,97991.88
2024-03-05T11:15:29.031Z,97990.81
2024-03-05T11:16:37.010Z,97989.19
2024-03-05T11:17:39.223Z,97983.22
2024-03-05T11:18:41.123Z,97982.69
2024-03-05T11:19:46.131Z,97986.84
2024-03-05T11:20:48.633Z,97981.88
2024-03-05T11:21:50.458Z,97982.19
2024-03-05T11:22:52.693Z,97974.84
2024-03-05T11:23:54.997Z,97978.03
2024-03-05T11:24:57.634Z,97980.25
2024-03-05T11:26:04.948Z,97975.91
2024-03-05T11:27:13.566Z,97974.50
2024-03-05T11:28:21.739Z,97977.53
2024-03-05T11:29:26.225Z,97981.06
2024-03-05T11:30:30.764Z,97975.34
2024-03-05T11:31:32.798Z,97978.06
2024-03-05T11:32:35.719Z,97967.47
2024-03-05T11:33:39.768Z,97981.09
2024-03-05T11:34:50.430Z,97962.28
2024-03-05T11:35:54.500Z,97977.25
2024-03-05T11:37:12.362Z,97981.59
2024-03-05T11:38:19.937Z,97988.38
2024-03-05T11:39:21.498Z,97981.84
2024-03-05T11:40:33.642Z,97988.09
2024-03-05T11:41:45.432Z,97978.84
2024-03-05T11:42:47.581Z,97973.94
2024-03-05T11:43:49.227Z,97982.66
2024-03-05T11:44:51.459Z,97985.56
2024-03-05T11:45:53.140Z,97980.69
2024-03-05T11:46:56.800Z,97974.66
2024-03-05T11:48:00.410Z,97964.84
2024-03-05T11:49:02.051Z,97976.03
2024-03-05T11:50:08.019Z,97974.66
2024-03-05T11:51:09.798Z,97980.34
2024-03-05T11:52:11.854Z,97974.41
2024-03-05T11:53:14.060Z,97978.53
2024-03-05T11:54:19.369Z,97979.84
2024-03-05T11:55:26.248Z,97970.06
2024-03-05T11:56:27.788Z,97975.50
2024-03-05T11:57:29.378Z,97965.19
2024-03-05T11:58:31.395Z,97969.50
2024-03-05T11:59:40.393Z,97968.41
2024-03-05T12:00:41.848Z,97966.06
2024-03-05T12:01:43.748Z,97974.19
2024-03-05T12:02:45.860Z,97961.34
2024-03-05T12:03:47.768Z,97963.81
2024-03-05T12:04:50.493Z,97977.44
2024-03-05T12:05:52.122Z,97969.88
2024-03-05T12:07:03.726Z,97957.63
2024-03-05T12:08:08.227Z,97969.56
2024-03-05T12:09:22.182Z,97973.66
2024-03-05T12:10:27.368Z,97969.56
2024-03-05T12:11:29.534Z,97966.06
2024-03-05T12:12:33.191Z,97968.41
2024-03-05T12:13:34.770Z,97949.09
2024-03-05T12:14:38.023Z,97962.22
2024-03-05T12:15:39.760Z,97960.06
2024-03-05T12:16:41.501Z,97939.91
2024-03-05T12:17:43.108Z,97971.22
2024-03-05T12:18:44.692Z,97945.06
2024-03-05T12:19:47.988Z,97940.16
2024-03-05T12:20:49.593Z,97951.63
2024-03-05T12:21:51.134Z,97950.25
2024-03-05T12:22:56.927Z,97958.19